Terminal Aerodrome Forecast
Issued by NWS

Home | Current Version | Previous Version | Text Only | Print | Product List | Glossary On
Versions: 1 2 3 4 5 6 7 8 9 10 11 12 13 14 15 16 17
000
FTUS43 KIWX 041721
TAFSBN
TAF
KSBN 041721Z 0418/0518 33020G29KT P6SM OVC010
     FM042300 34014G22KT P6SM -SHRA BKN008 OVC012
      TEMPO 0423/0502 5SM -SHRA OVC008
     FM050800 36011KT 5SM BR BKN012
     FM051300 01012KT P6SM SCT015=

USA.gov is the U.S. government's official web portal to all federal, state and local government web resources and services.